Time;durP1;ratioP1;P1;durP2;ratioP2;P2;SDS_P1;SDS_P2;PMS_P1;PMS_P2;Temp;Humidity;BMP_temperature;BMP_pressure;BME280_temperature;BME280_humidity;BME280_pressure;Samples;Min_cycle;Max_cycle;Signal;HPM_P1;HPM_P2
2022/07/26 00:01:43;;;;;;;;;;;22.30;63.70;;;;;;5040505;28;19931;-67
2022/07/26 00:04:08;;;;;;;;;;;22.30;63.80;;;;;;5041260;28;19997;-67
2022/07/26 00:06:34;;;;;;;;;;;22.30;63.80;;;;;;5025082;28;20004;-67
2022/07/26 00:08:59;;;;;;;;;;;22.20;63.80;;;;;;5023315;28;20502;-67
2022/07/26 00:11:25;;;;;;;;;;;22.20;63.80;;;;;;5027045;28;19920;-67
2022/07/26 00:13:51;;;;;;;;;;;22.20;64.00;;;;;;5039460;28;20012;-67
2022/07/26 00:16:17;;;;;;;;;;;22.20;63.80;;;;;;5026172;28;20003;-67
2022/07/26 00:18:43;;;;;;;;;;;22.20;64.00;;;;;;5022989;28;19959;-67
2022/07/26 00:21:08;;;;;;;;;;;22.20;64.20;;;;;;5023325;28;19924;-67
2022/07/26 00:23:34;;;;;;;;;;;22.10;64.00;;;;;;5022364;28;20356;-68
2022/07/26 00:26:00;;;;;;;;;;;22.10;64.10;;;;;;5022835;28;20595;-68
2022/07/26 00:28:25;;;;;;;;;;;22.10;64.20;;;;;;5030459;28;19921;-68
2022/07/26 00:30:51;;;;;;;;;;;22.10;64.20;;;;;;5021066;28;20004;-67
2022/07/26 00:33:16;;;;;;;;;;;22.10;64.20;;;;;;5017882;28;20044;-67
2022/07/26 00:35:42;;;;;;;;;;;22.00;64.60;;;;;;5022758;28;20333;-68
2022/07/26 00:38:07;;;;;;;;;;;22.00;64.50;;;;;;5022106;28;20440;-67
2022/07/26 00:40:33;;;;;;;;;;;22.00;64.40;;;;;;5030335;28;20611;-67
2022/07/26 00:42:58;;;;;;;;;;;22.00;64.60;;;;;;5022361;28;19920;-67
2022/07/26 00:45:24;;;;;;;;;;;21.90;64.30;;;;;;5021515;28;19924;-68
2022/07/26 00:47:49;;;;;;;;;;;21.90;64.50;;;;;;5020566;28;19913;-67
2022/07/26 00:50:16;;;;;;;;;;;21.90;64.70;;;;;;5022059;28;20293;-67
2022/07/26 00:52:43;;;;;;;;;;;21.90;64.70;;;;;;5021857;28;19913;-67
2022/07/26 00:55:09;;;;;;;;;;;21.90;65.00;;;;;;5021552;28;19935;-67
2022/07/26 00:57:34;;;;;;;;;;;21.80;64.70;;;;;;5021299;28;20349;-67
2022/07/26 01:00:20;;;;;;;;;;;21.80;65.00;;;;;;5022302;28;19917;-67
2022/07/26 01:02:46;;;;;;;;;;;21.80;64.90;;;;;;5012871;28;19918;-67
2022/07/26 01:05:12;;;;;;;;;;;21.70;65.00;;;;;;5035135;28;20388;-67
2022/07/26 01:07:38;;;;;;;;;;;21.70;65.00;;;;;;5022140;28;19924;-67
2022/07/26 01:10:04;;;;;;;;;;;21.70;65.00;;;;;;5004312;28;19917;-67
2022/07/26 01:12:30;;;;;;;;;;;21.70;65.20;;;;;;5003943;28;20406;-67
2022/07/26 01:14:55;;;;;;;;;;;21.70;65.20;;;;;;5021740;28;19920;-67
2022/07/26 01:17:21;;;;;;;;;;;21.70;65.30;;;;;;5021833;28;20016;-67
2022/07/26 01:19:46;;;;;;;;;;;21.60;65.30;;;;;;5039650;28;19967;-67
2022/07/26 01:22:12;;;;;;;;;;;21.70;65.30;;;;;;5039019;28;20389;-67
2022/07/26 01:24:38;;;;;;;;;;;21.60;65.20;;;;;;5021933;28;19913;-67
2022/07/26 01:27:03;;;;;;;;;;;21.60;65.60;;;;;;5020211;28;20369;-67
2022/07/26 01:29:29;;;;;;;;;;;21.60;65.50;;;;;;5013488;28;19913;-67
2022/07/26 01:31:54;;;;;;;;;;;21.60;65.70;;;;;;5037673;28;19955;-67
2022/07/26 01:34:20;;;;;;;;;;;21.50;65.80;;;;;;5021902;28;19913;-67
2022/07/26 01:36:45;;;;;;;;;;;21.50;66.10;;;;;;5021714;28;20380;-68
2022/07/26 01:39:11;;;;;;;;;;;21.50;66.00;;;;;;5031191;28;19913;-67
2022/07/26 01:41:37;;;;;;;;;;;21.50;65.80;;;;;;5021489;28;19917;-67
2022/07/26 01:44:03;;;;;;;;;;;21.50;65.90;;;;;;5021802;28;19913;-67
2022/07/26 01:46:28;;;;;;;;;;;21.50;66.10;;;;;;5021188;28;19998;-67
2022/07/26 01:48:54;;;;;;;;;;;21.40;66.10;;;;;;5021587;28;19913;-67
2022/07/26 01:51:19;;;;;;;;;;;21.40;66.20;;;;;;5021534;28;19923;-67
2022/07/26 01:53:45;;;;;;;;;;;21.40;66.20;;;;;;5021563;28;20327;-67
2022/07/26 01:56:11;;;;;;;;;;;21.40;66.00;;;;;;5021524;28;19913;-67
2022/07/26 01:58:37;;;;;;;;;;;21.40;66.00;;;;;;5009014;28;20534;-67
2022/07/26 02:01:02;;;;;;;;;;;21.40;66.40;;;;;;5039391;28;19917;-67
2022/07/26 02:03:28;;;;;;;;;;;21.40;66.30;;;;;;5039926;28;19921;-67
2022/07/26 02:05:54;;;;;;;;;;;21.40;66.40;;;;;;5028962;28;20420;-67
2022/07/26 02:08:19;;;;;;;;;;;21.30;66.60;;;;;;5021249;28;19943;-67
2022/07/26 02:11:00;;;;;;;;;;;21.30;66.60;;;;;;5021412;28;19920;-67
2022/07/26 02:13:29;;;;;;;;;;;21.30;66.60;;;;;;5018077;28;20349;-67
2022/07/26 02:15:57;;;;;;;;;;;21.30;66.30;;;;;;5039584;28;19923;-67
2022/07/26 02:18:24;;;;;;;;;;;21.30;66.20;;;;;;5003551;28;20341;-67
2022/07/26 02:20:49;;;;;;;;;;;21.30;66.30;;;;;;5003843;28;19969;-67
2022/07/26 02:23:15;;;;;;;;;;;21.30;66.20;;;;;;5021388;28;20253;-67
2022/07/26 02:25:40;;;;;;;;;;;21.30;66.50;;;;;;5021135;28;19944;-67
2022/07/26 02:28:06;;;;;;;;;;;21.30;66.60;;;;;;5020940;28;19920;-67
2022/07/26 02:30:31;;;;;;;;;;;21.30;66.70;;;;;;5003311;28;19921;-67
2022/07/26 02:32:57;;;;;;;;;;;21.20;66.60;;;;;;5038892;28;20629;-67
2022/07/26 02:35:22;;;;;;;;;;;21.20;66.60;;;;;;5018976;28;20611;-67
2022/07/26 02:37:48;;;;;;;;;;;21.30;66.60;;;;;;5019961;28;20458;-67
2022/07/26 02:40:13;;;;;;;;;;;21.20;66.60;;;;;;5031668;28;20673;-67
2022/07/26 02:42:39;;;;;;;;;;;21.20;66.80;;;;;;5021461;28;20405;-67
2022/07/26 02:45:04;;;;;;;;;;;21.20;66.60;;;;;;5039128;28;19977;-67
2022/07/26 02:47:31;;;;;;;;;;;21.20;66.60;;;;;;5027998;28;19920;-67
2022/07/26 02:49:57;;;;;;;;;;;21.20;67.00;;;;;;5020906;28;19918;-67
2022/07/26 02:52:23;;;;;;;;;;;21.20;67.10;;;;;;5020195;28;19943;-67
2022/07/26 02:54:48;;;;;;;;;;;21.20;67.00;;;;;;5020741;28;19933;-67
2022/07/26 02:57:14;;;;;;;;;;;21.10;67.10;;;;;;5020692;28;19913;-67
2022/07/26 02:59:39;;;;;;;;;;;21.20;67.00;;;;;;5021186;28;19954;-67
2022/07/26 03:02:05;;;;;;;;;;;21.20;67.20;;;;;;5023200;28;19920;-67
2022/07/26 03:04:30;;;;;;;;;;;21.20;67.00;;;;;;5024283;28;19913;-67
2022/07/26 03:06:55;;;;;;;;;;;21.10;67.10;;;;;;5022957;28;20528;-67
2022/07/26 03:09:21;;;;;;;;;;;21.10;67.10;;;;;;5024383;28;19921;-67
2022/07/26 03:11:47;;;;;;;;;;;21.10;67.50;;;;;;5023403;28;19921;-67
2022/07/26 03:14:12;;;;;;;;;;;21.10;67.60;;;;;;5023877;28;19917;-67
2022/07/26 03:16:38;;;;;;;;;;;21.10;67.70;;;;;;5023750;28;19914;-67
2022/07/26 03:19:03;;;;;;;;;;;21.10;67.60;;;;;;5024165;28;19974;-67
2022/07/26 03:21:29;;;;;;;;;;;21.10;68.10;;;;;;5023475;28;19920;-67
2022/07/26 03:23:54;;;;;;;;;;;21.10;68.20;;;;;;5023455;28;19913;-67
2022/07/26 03:26:20;;;;;;;;;;;21.00;68.20;;;;;;5023510;28;19914;-67
2022/07/26 03:28:45;;;;;;;;;;;21.00;68.40;;;;;;5023985;28;19913;-67
2022/07/26 03:31:11;;;;;;;;;;;21.00;68.30;;;;;;5024078;28;19914;-67
2022/07/26 03:33:37;;;;;;;;;;;21.00;68.00;;;;;;5024220;28;19914;-67
2022/07/26 03:36:03;;;;;;;;;;;21.00;68.00;;;;;;5023520;28;20029;-67
2022/07/26 03:38:28;;;;;;;;;;;21.00;68.40;;;;;;5030473;28;19992;-68
2022/07/26 03:40:54;;;;;;;;;;;21.00;68.80;;;;;;5019866;28;20057;-67
2022/07/26 03:43:19;;;;;;;;;;;21.00;68.90;;;;;;5041935;28;19913;-67
2022/07/26 03:45:45;;;;;;;;;;;20.90;68.60;;;;;;5041373;28;19928;-68
2022/07/26 03:48:11;;;;;;;;;;;20.90;69.20;;;;;;5025948;28;19913;-67
2022/07/26 03:50:36;;;;;;;;;;;20.90;68.90;;;;;;5005414;28;19920;-67
2022/07/26 03:53:02;;;;;;;;;;;20.90;69.10;;;;;;5023053;28;20265;-68
2022/07/26 03:58:12;;;;;;;;;;;20.90;68.60;;;;;;5023002;28;19923;-68
2022/07/26 04:00:38;;;;;;;;;;;20.90;69.30;;;;;;5023258;28;19913;-67
2022/07/26 04:03:03;;;;;;;;;;;20.90;69.40;;;;;;5023192;28;19913;-67
2022/07/26 04:05:29;;;;;;;;;;;20.90;70.20;;;;;;5022885;28;19917;-68
2022/07/26 04:07:54;;;;;;;;;;;20.90;69.60;;;;;;5022964;28;19913;-68
2022/07/26 04:10:20;;;;;;;;;;;20.80;69.90;;;;;;5023209;28;20421;-67
2022/07/26 04:12:46;;;;;;;;;;;20.80;70.00;;;;;;5022791;28;19992;-67
2022/07/26 04:15:11;;;;;;;;;;;20.80;69.60;;;;;;5021634;28;20016;-67
2022/07/26 04:17:40;;;;;;;;;;;20.80;69.70;;;;;;5004663;28;19985;-68
2022/07/26 04:20:07;;;;;;;;;;;20.80;69.70;;;;;;5041135;28;19912;-67
2022/07/26 04:22:36;;;;;;;;;;;20.80;70.10;;;;;;5029409;28;19928;-67
2022/07/26 04:25:03;;;;;;;;;;;20.80;70.40;;;;;;5016831;28;19952;-67
2022/07/26 04:27:29;;;;;;;;;;;20.80;70.40;;;;;;5016503;28;19913;-67
2022/07/26 04:29:54;;;;;;;;;;;20.80;70.60;;;;;;5023121;28;20275;-67
2022/07/26 04:32:20;;;;;;;;;;;20.80;70.20;;;;;;5022918;28;19956;-67
2022/07/26 04:34:45;;;;;;;;;;;20.80;70.30;;;;;;5022231;28;19920;-67
2022/07/26 04:37:11;;;;;;;;;;;20.80;70.10;;;;;;5021972;28;20284;-68
2022/07/26 04:39:36;;;;;;;;;;;20.80;70.40;;;;;;5030616;28;20512;-67
2022/07/26 04:42:02;;;;;;;;;;;20.70;70.60;;;;;;5022891;28;19974;-67
2022/07/26 04:44:27;;;;;;;;;;;20.70;70.90;;;;;;5022799;28;19913;-67
2022/07/26 04:46:53;;;;;;;;;;;20.70;71.20;;;;;;5022332;28;20442;-67
2022/07/26 04:49:18;;;;;;;;;;;20.70;71.30;;;;;;5022895;28;20700;-67
2022/07/26 04:51:44;;;;;;;;;;;20.70;71.20;;;;;;5022531;28;20004;-67
2022/07/26 04:54:09;;;;;;;;;;;20.70;71.40;;;;;;5031949;28;19921;-67
2022/07/26 04:56:35;;;;;;;;;;;20.70;71.40;;;;;;5040564;28;19920;-67
2022/07/26 04:59:00;;;;;;;;;;;20.70;71.30;;;;;;5040822;28;19913;-67
2022/07/26 05:01:26;;;;;;;;;;;20.70;71.10;;;;;;5040779;28;19920;-67
2022/07/26 05:03:51;;;;;;;;;;;20.70;71.30;;;;;;5040653;28;20527;-67
2022/07/26 05:06:17;;;;;;;;;;;20.70;71.10;;;;;;5027291;28;19913;-67
2022/07/26 05:08:42;;;;;;;;;;;20.70;71.40;;;;;;5022935;28;19924;-67
2022/07/26 05:11:08;;;;;;;;;;;20.70;71.40;;;;;;5022819;28;19917;-67
2022/07/26 05:13:33;;;;;;;;;;;20.60;71.20;;;;;;5022910;28;19928;-67
2022/07/26 05:15:59;;;;;;;;;;;20.60;71.50;;;;;;5022724;28;20381;-67
2022/07/26 05:18:25;;;;;;;;;;;20.60;71.60;;;;;;5022460;28;19913;-67
2022/07/26 05:20:51;;;;;;;;;;;20.70;71.60;;;;;;5040798;28;19923;-67
2022/07/26 05:23:16;;;;;;;;;;;20.70;71.80;;;;;;5040244;28;19912;-67
2022/07/26 05:25:42;;;;;;;;;;;20.70;71.30;;;;;;5021988;28;19948;-67
2022/07/26 05:28:07;;;;;;;;;;;20.60;71.50;;;;;;5022626;28;20027;-68
2022/07/26 05:30:33;;;;;;;;;;;20.60;71.60;;;;;;5022397;28;20336;-68
2022/07/26 05:32:58;;;;;;;;;;;20.60;71.80;;;;;;5035384;28;20265;-67
2022/07/26 05:35:24;;;;;;;;;;;20.70;71.80;;;;;;5033553;28;19913;-68
2022/07/26 05:37:49;;;;;;;;;;;20.60;71.90;;;;;;5021982;28;20280;-68
2022/07/26 05:40:15;;;;;;;;;;;20.60;72.00;;;;;;5031835;28;19917;-67
2022/07/26 05:42:41;;;;;;;;;;;20.60;71.30;;;;;;5022509;28;19913;-68
2022/07/26 05:45:07;;;;;;;;;;;20.60;71.10;;;;;;5004344;28;19928;-67
2022/07/26 05:47:32;;;;;;;;;;;20.70;71.70;;;;;;5022365;28;20428;-68
2022/07/26 05:49:58;;;;;;;;;;;20.60;71.30;;;;;;5022576;28;20329;-68
2022/07/26 05:52:23;;;;;;;;;;;20.70;71.50;;;;;;5022014;28;20015;-68
2022/07/26 05:54:49;;;;;;;;;;;20.60;71.10;;;;;;5021906;28;19914;-68
2022/07/26 05:57:14;;;;;;;;;;;20.70;71.40;;;;;;5021867;28;19920;-67
2022/07/26 05:59:40;;;;;;;;;;;20.70;71.30;;;;;;5021801;28;20032;-68
2022/07/26 06:02:07;;;;;;;;;;;20.70;71.20;;;;;;5021824;28;19917;-68
2022/07/26 06:04:32;;;;;;;;;;;20.70;71.00;;;;;;5003656;28;19920;-67
2022/07/26 06:06:58;;;;;;;;;;;20.70;71.10;;;;;;5021642;28;20441;-67
2022/07/26 06:09:24;;;;;;;;;;;20.70;71.00;;;;;;5021919;28;20485;-68
2022/07/26 06:11:49;;;;;;;;;;;20.70;70.90;;;;;;5021946;28;19939;-67
2022/07/26 06:14:15;;;;;;;;;;;20.70;71.20;;;;;;5028828;28;19938;-67
2022/07/26 06:16:40;;;;;;;;;;;20.80;71.10;;;;;;5021482;28;20365;-67
2022/07/26 06:19:06;;;;;;;;;;;20.80;71.00;;;;;;5021694;28;19920;-67
2022/07/26 06:21:31;;;;;;;;;;;20.80;71.10;;;;;;5021586;28;19913;-67
2022/07/26 06:23:57;;;;;;;;;;;20.80;71.10;;;;;;5036682;28;20350;-67
2022/07/26 06:26:22;;;;;;;;;;;20.80;71.10;;;;;;5021173;28;20024;-67
2022/07/26 06:28:50;;;;;;;;;;;20.80;71.60;;;;;;5021388;28;19917;-67
2022/07/26 06:31:18;;;;;;;;;;;20.90;71.10;;;;;;5021375;28;19914;-67
2022/07/26 06:33:44;;;;;;;;;;;20.90;71.10;;;;;;5021483;28;20011;-67
2022/07/26 06:36:09;;;;;;;;;;;20.90;71.10;;;;;;5004562;28;20460;-67
2022/07/26 06:38:35;;;;;;;;;;;21.00;71.20;;;;;;5030942;28;19986;-67
2022/07/26 06:41:00;;;;;;;;;;;21.00;71.20;;;;;;5029761;28;19917;-67
2022/07/26 06:43:26;;;;;;;;;;;21.00;71.10;;;;;;5024739;28;19920;-67
2022/07/26 06:45:52;;;;;;;;;;;21.00;71.20;;;;;;5024520;28;20004;-67
2022/07/26 06:48:17;;;;;;;;;;;21.00;71.10;;;;;;5024537;28;19913;-67
2022/07/26 06:50:43;;;;;;;;;;;21.00;70.90;;;;;;5024337;28;19970;-67
2022/07/26 06:53:08;;;;;;;;;;;21.10;71.10;;;;;;5039391;28;20239;-67
2022/07/26 06:55:34;;;;;;;;;;;21.10;71.00;;;;;;5024759;28;19909;-67
2022/07/26 06:57:59;;;;;;;;;;;21.10;71.00;;;;;;5024162;28;20326;-67
2022/07/26 07:00:25;;;;;;;;;;;21.10;71.00;;;;;;5024731;28;19909;-67
2022/07/26 07:02:50;;;;;;;;;;;21.10;71.10;;;;;;5024675;28;19913;-67
2022/07/26 07:05:16;;;;;;;;;;;21.10;71.10;;;;;;5006290;28;19948;-67
2022/07/26 07:07:41;;;;;;;;;;;21.20;71.10;;;;;;5023666;28;19917;-67
2022/07/26 07:10:07;;;;;;;;;;;21.20;71.10;;;;;;5035508;28;19970;-67
2022/07/26 07:12:33;;;;;;;;;;;21.20;71.30;;;;;;5024214;28;19929;-67
2022/07/26 07:14:59;;;;;;;;;;;21.20;71.30;;;;;;5024041;28;19912;-67
2022/07/26 07:17:24;;;;;;;;;;;21.20;71.20;;;;;;5023726;28;19921;-67
2022/07/26 07:19:50;;;;;;;;;;;21.20;71.10;;;;;;5024068;28;19995;-67
2022/07/26 07:22:15;;;;;;;;;;;21.30;71.20;;;;;;5024422;28;19936;-67
2022/07/26 07:24:41;;;;;;;;;;;21.30;71.20;;;;;;5023851;28;19997;-67
2022/07/26 07:27:07;;;;;;;;;;;21.30;71.10;;;;;;5023778;28;19913;-67
2022/07/26 07:29:33;;;;;;;;;;;21.30;71.30;;;;;;5024291;28;19920;-67
2022/07/26 07:31:58;;;;;;;;;;;21.30;71.20;;;;;;5006222;28;20665;-67
2022/07/26 07:34:24;;;;;;;;;;;21.30;71.40;;;;;;5024048;28;20516;-67
2022/07/26 07:36:49;;;;;;;;;;;21.40;71.30;;;;;;5023600;28;19936;-67
2022/07/26 07:39:15;;;;;;;;;;;21.40;71.20;;;;;;5031141;28;19917;-67
2022/07/26 07:41:42;;;;;;;;;;;21.40;71.20;;;;;;5023370;28;19954;-67
2022/07/26 07:44:07;;;;;;;;;;;21.50;71.20;;;;;;5023649;28;19913;-67
2022/07/26 07:46:33;;;;;;;;;;;21.50;70.80;;;;;;5022587;28;19925;-67
2022/07/26 07:48:58;;;;;;;;;;;21.60;70.80;;;;;;5005558;28;20687;-67
2022/07/26 07:51:27;;;;;;;;;;;21.60;70.80;;;;;;5023712;28;19913;-67
2022/07/26 07:53:52;;;;;;;;;;;21.70;71.00;;;;;;5023277;28;20004;-67
2022/07/26 07:56:18;;;;;;;;;;;21.70;71.00;;;;;;5022948;28;20008;-67
2022/07/26 07:58:44;;;;;;;;;;;21.70;71.20;;;;;;5023112;28;19917;-67
2022/07/26 08:01:09;;;;;;;;;;;21.70;70.80;;;;;;5023121;28;19913;-67
2022/07/26 08:03:35;;;;;;;;;;;21.80;71.10;;;;;;5023336;28;20619;-67
2022/07/26 08:06:01;;;;;;;;;;;21.80;70.70;;;;;;5023030;28;20312;-67
2022/07/26 08:08:27;;;;;;;;;;;21.80;70.70;;;;;;5041674;28;19913;-67
2022/07/26 08:10:52;;;;;;;;;;;21.80;70.90;;;;;;5029167;28;20334;-67
2022/07/26 08:13:18;;;;;;;;;;;21.80;70.60;;;;;;5022987;28;19924;-67
2022/07/26 08:15:44;;;;;;;;;;;21.90;70.50;;;;;;5023368;28;19958;-67
2022/07/26 08:18:10;;;;;;;;;;;21.90;70.60;;;;;;5022966;28;19909;-67
2022/07/26 08:20:35;;;;;;;;;;;22.00;70.50;;;;;;5023621;28;20413;-67
2022/07/26 08:23:00;;;;;;;;;;;22.00;70.20;;;;;;5023112;28;19943;-67
2022/07/26 08:25:26;;;;;;;;;;;22.10;70.70;;;;;;5022700;28;20000;-67
2022/07/26 08:27:52;;;;;;;;;;;22.10;70.40;;;;;;5022458;28;20203;-67
2022/07/26 08:30:17;;;;;;;;;;;22.10;70.20;;;;;;5022560;28;19942;-67
2022/07/26 08:32:42;;;;;;;;;;;22.10;70.50;;;;;;5022404;28;19925;-67
2022/07/26 08:35:08;;;;;;;;;;;22.10;70.30;;;;;;5022711;28;19913;-67
2022/07/26 08:37:34;;;;;;;;;;;22.10;70.60;;;;;;5022913;28;20000;-67
2022/07/26 08:39:59;;;;;;;;;;;22.10;70.30;;;;;;5031676;28;19920;-67
2022/07/26 08:42:25;;;;;;;;;;;22.10;70.50;;;;;;5023878;28;19917;-67
2022/07/26 08:44:50;;;;;;;;;;;22.10;70.30;;;;;;5041717;28;20393;-67
2022/07/26 08:47:17;;;;;;;;;;;22.20;70.10;;;;;;5031741;28;19948;-67
2022/07/26 08:49:43;;;;;;;;;;;22.20;70.00;;;;;;5022383;28;20436;-67
2022/07/26 08:52:09;;;;;;;;;;;22.20;70.20;;;;;;5022665;28;19917;-67
2022/07/26 08:54:41;;;;;;;;;;;22.20;70.50;;;;;;5022278;28;20749;-67
2022/07/26 08:57:07;;;;;;;;;;;22.20;70.30;;;;;;5022358;28;19917;-67
2022/07/26 08:59:32;;;;;;;;;;;22.20;70.30;;;;;;5003869;28;19963;-67
2022/07/26 09:01:59;;;;;;;;;;;22.20;70.30;;;;;;5022380;28;20010;-67
2022/07/26 09:04:29;;;;;;;;;;;22.10;70.30;;;;;;5022554;28;19913;-67
2022/07/26 09:07:00;;;;;;;;;;;22.10;70.30;;;;;;5022267;28;19913;-67
2022/07/26 09:09:26;;;;;;;;;;;22.10;70.30;;;;;;5024087;28;20045;-67
2022/07/26 09:11:52;;;;;;;;;;;22.10;70.30;;;;;;5038116;28;20020;-67
2022/07/26 09:14:18;;;;;;;;;;;22.10;70.20;;;;;;5022364;28;19913;-67
2022/07/26 09:16:59;;;;;;;;;;;22.10;70.30;;;;;;5022092;28;19926;-67
2022/07/26 09:19:25;;;;;;;;;;;22.10;70.40;;;;;;5022345;28;20360;-67
2022/07/26 09:21:51;;;;;;;;;;;22.10;70.60;;;;;;5022230;28;19913;-67
2022/07/26 09:24:36;;;;;;;;;;;22.10;70.30;;;;;;5022268;28;20008;-67
2022/07/26 09:27:03;;;;;;;;;;;22.10;70.30;;;;;;5011204;28;20012;-67
2022/07/26 09:29:29;;;;;;;;;;;22.20;70.10;;;;;;5016855;28;19924;-67
2022/07/26 09:32:08;;;;;;;;;;;22.20;70.00;;;;;;5040134;28;19921;-67
2022/07/26 09:34:34;;;;;;;;;;;22.30;70.50;;;;;;5021984;28;20736;-67
2022/07/26 09:37:00;;;;;;;;;;;22.40;69.60;;;;;;5021839;28;19997;-67
2022/07/26 09:39:25;;;;;;;;;;;22.40;69.80;;;;;;5031834;28;19924;-67
2022/07/26 09:41:51;;;;;;;;;;;22.40;70.00;;;;;;5022358;28;19917;-67
2022/07/26 09:44:23;;;;;;;;;;;22.40;69.80;;;;;;5022153;28;19950;-67
2022/07/26 09:46:53;;;;;;;;;;;22.50;69.70;;;;;;5028005;28;20028;-67
2022/07/26 09:49:19;;;;;;;;;;;22.50;69.70;;;;;;5040485;28;19944;-67
2022/07/26 09:51:46;;;;;;;;;;;22.40;70.00;;;;;;5040037;28;19952;-67
2022/07/26 09:54:16;;;;;;;;;;;22.40;69.90;;;;;;5040277;28;20521;-68
2022/07/26 09:56:42;;;;;;;;;;;22.40;69.80;;;;;;5039987;28;19920;-67
2022/07/26 09:59:08;;;;;;;;;;;22.30;70.10;;;;;;5040304;28;20261;-67
2022/07/26 10:01:33;;;;;;;;;;;22.30;70.50;;;;;;5035058;28;19917;-67
2022/07/26 10:03:59;;;;;;;;;;;22.30;70.10;;;;;;5021903;28;20557;-67
2022/07/26 10:06:24;;;;;;;;;;;22.30;70.00;;;;;;5021413;28;20360;-67
2022/07/26 10:08:50;;;;;;;;;;;22.30;70.00;;;;;;5003305;28;19920;-67
2022/07/26 10:11:17;;;;;;;;;;;22.40;70.00;;;;;;5024533;28;19913;-67
2022/07/26 10:13:43;;;;;;;;;;;22.50;69.60;;;;;;5025123;28;20013;-67
2022/07/26 10:16:27;;;;;;;;;;;22.60;69.60;;;;;;5024914;28;20388;-67
2022/07/26 10:18:52;;;;;;;;;;;22.60;69.20;;;;;;5035544;28;20003;-67
2022/07/26 10:21:19;;;;;;;;;;;22.70;69.30;;;;;;5025354;28;20043;-67
2022/07/26 10:23:45;;;;;;;;;;;22.70;69.20;;;;;;5043684;28;19957;-67
2022/07/26 10:26:31;;;;;;;;;;;22.80;69.20;;;;;;5043598;28;19924;-67
2022/07/26 10:29:18;;;;;;;;;;;22.80;69.00;;;;;;5014022;28;19982;-67
2022/07/26 10:31:44;;;;;;;;;;;23.00;68.80;;;;;;5025152;28;19929;-67
2022/07/26 10:34:10;;;;;;;;;;;23.00;68.70;;;;;;5025074;28;20024;-67
2022/07/26 10:36:37;;;;;;;;;;;23.10;68.50;;;;;;5024783;28;20802;-67
2022/07/26 10:39:05;;;;;;;;;;;23.10;68.80;;;;;;5035150;28;19996;-67
2022/07/26 10:41:38;;;;;;;;;;;23.00;68.80;;;;;;5025941;28;20032;-67
2022/07/26 10:44:14;;;;;;;;;;;22.90;68.90;;;;;;5024786;28;19920;-67
2022/07/26 10:46:56;;;;;;;;;;;22.80;69.00;;;;;;5024375;28;19928;-67
2022/07/26 10:49:54;;;;;;;;;;;22.80;69.20;;;;;;5023923;28;20315;-67
2022/07/26 10:52:27;;;;;;;;;;;22.80;69.20;;;;;;4998287;28;20797;-67
2022/07/26 10:54:56;;;;;;;;;;;22.80;69.30;;;;;;5024866;28;19913;-67
2022/07/26 10:57:22;;;;;;;;;;;22.80;69.30;;;;;;5024403;28;19948;-67
2022/07/26 10:59:47;;;;;;;;;;;22.80;69.40;;;;;;5024733;28;19953;-67
2022/07/26 11:02:20;;;;;;;;;;;22.80;69.40;;;;;;5024716;28;20553;-67
2022/07/26 11:04:46;;;;;;;;;;;22.80;69.40;;;;;;5021632;28;19953;-67
2022/07/26 11:07:12;;;;;;;;;;;22.80;69.40;;;;;;5024166;28;19936;-67
2022/07/26 11:09:38;;;;;;;;;;;22.80;69.30;;;;;;5024621;28;19913;-67
2022/07/26 11:12:16;;;;;;;;;;;22.80;69.30;;;;;;5006795;28;19921;-67
2022/07/26 11:14:42;;;;;;;;;;;22.80;69.30;;;;;;5037334;28;19994;-67
2022/07/26 11:17:07;;;;;;;;;;;22.80;69.40;;;;;;5023461;28;19921;-67
2022/07/26 11:19:37;;;;;;;;;;;22.80;69.30;;;;;;5024388;28;19913;-67
2022/07/26 11:22:03;;;;;;;;;;;22.80;69.30;;;;;;5023399;28;19913;-67
2022/07/26 11:24:28;;;;;;;;;;;22.80;69.40;;;;;;5024092;28;19924;-67
2022/07/26 11:26:54;;;;;;;;;;;22.80;69.50;;;;;;5023802;28;19936;-67
2022/07/26 11:29:27;;;;;;;;;;;22.80;69.40;;;;;;5024672;28;19952;-67
2022/07/26 11:31:52;;;;;;;;;;;22.90;69.30;;;;;;5023988;28;19914;-67
2022/07/26 11:34:19;;;;;;;;;;;23.00;69.30;;;;;;5024247;28;19913;-67
2022/07/26 11:36:45;;;;;;;;;;;23.00;69.20;;;;;;5023704;28;19920;-67
2022/07/26 11:39:12;;;;;;;;;;;23.00;69.10;;;;;;5032873;28;19919;-67
2022/07/26 11:41:38;;;;;;;;;;;23.10;68.90;;;;;;5037093;28;19977;-67
2022/07/26 11:44:04;;;;;;;;;;;23.10;68.80;;;;;;5042047;28;20347;-67
2022/07/26 11:46:34;;;;;;;;;;;23.20;68.60;;;;;;5038300;28;19921;-67
2022/07/26 11:49:00;;;;;;;;;;;23.30;68.40;;;;;;5023886;28;20300;-67
2022/07/26 11:51:25;;;;;;;;;;;23.30;68.50;;;;;;5023734;28;19920;-67
2022/07/26 11:53:58;;;;;;;;;;;23.30;68.40;;;;;;5023534;28;19925;-67
2022/07/26 11:56:24;;;;;;;;;;;23.30;68.60;;;;;;5023472;28;19916;-67
2022/07/26 11:58:50;;;;;;;;;;;23.30;68.60;;;;;;5037827;28;20739;-67
2022/07/26 12:01:19;;;;;;;;;;;23.30;68.70;;;;;;5041625;28;20330;-67
2022/07/26 12:03:46;;;;;;;;;;;23.30;68.70;;;;;;5025414;28;19989;-67
2022/07/26 12:06:12;;;;;;;;;;;23.40;68.70;;;;;;5023668;28;19917;-67
2022/07/26 12:08:42;;;;;;;;;;;23.40;68.60;;;;;;5023800;28;19944;-67
2022/07/26 12:11:08;;;;;;;;;;;23.60;68.40;;;;;;5037863;28;20473;-67
2022/07/26 12:13:54;;;;;;;;;;;23.70;68.30;;;;;;5039010;28;19921;-67
2022/07/26 12:16:35;;;;;;;;;;;23.80;67.90;;;;;;5020989;28;19923;-67
2022/07/26 12:19:00;;;;;;;;;;;23.90;67.40;;;;;;5022998;28;20358;-67
2022/07/26 12:21:39;;;;;;;;;;;24.00;67.20;;;;;;5023655;28;19913;-67
2022/07/26 12:24:05;;;;;;;;;;;24.10;67.30;;;;;;5017524;28;19920;-67
2022/07/26 12:26:30;;;;;;;;;;;24.10;67.20;;;;;;5022798;28;19925;-67
2022/07/26 12:28:56;;;;;;;;;;;24.30;67.10;;;;;;5023108;28;20003;-67
2022/07/26 12:31:25;;;;;;;;;;;24.30;66.60;;;;;;5021857;28;19921;-67
2022/07/26 12:33:51;;;;;;;;;;;24.50;66.50;;;;;;5006757;28;20024;-67
2022/07/26 12:36:17;;;;;;;;;;;24.50;66.40;;;;;;5025355;28;19996;-67
2022/07/26 12:38:43;;;;;;;;;;;24.40;66.70;;;;;;5022177;28;19913;-67
2022/07/26 12:41:09;;;;;;;;;;;24.40;66.90;;;;;;5024550;28;19917;-67
2022/07/26 12:43:41;;;;;;;;;;;24.40;66.90;;;;;;5022150;28;19917;-67
2022/07/26 12:46:06;;;;;;;;;;;24.50;66.80;;;;;;5021845;28;19924;-67
2022/07/26 12:48:32;;;;;;;;;;;24.60;66.60;;;;;;5021878;28;20659;-67
2022/07/26 12:50:57;;;;;;;;;;;24.80;66.20;;;;;;5010571;28;19966;-67
2022/07/26 12:53:22;;;;;;;;;;;24.80;65.90;;;;;;5021436;28;19948;-67
2022/07/26 12:55:48;;;;;;;;;;;24.90;65.70;;;;;;5020420;28;19913;-67
2022/07/26 12:58:13;;;;;;;;;;;24.90;65.70;;;;;;5024141;28;19924;-68
2022/07/26 13:00:39;;;;;;;;;;;25.00;65.80;;;;;;5039889;28;19951;-67
2022/07/26 13:03:04;;;;;;;;;;;25.00;65.60;;;;;;5040901;28;20015;-68
2022/07/26 13:05:30;;;;;;;;;;;25.10;65.40;;;;;;5033244;28;19924;-67
2022/07/26 13:07:56;;;;;;;;;;;25.10;65.30;;;;;;5021541;28;20614;-67
2022/07/26 13:10:22;;;;;;;;;;;25.10;66.10;;;;;;5022673;28;19913;-67
2022/07/26 13:12:47;;;;;;;;;;;25.00;65.60;;;;;;5022613;28;20492;-67
2022/07/26 13:15:13;;;;;;;;;;;25.00;65.70;;;;;;5030842;28;19929;-67
2022/07/26 13:17:38;;;;;;;;;;;25.00;65.90;;;;;;5028413;28;20603;-67
2022/07/26 13:20:04;;;;;;;;;;;25.00;66.00;;;;;;5022519;28;20107;-67
2022/07/26 13:22:29;;;;;;;;;;;24.90;65.90;;;;;;5007306;28;19941;-67
2022/07/26 13:24:55;;;;;;;;;;;24.80;65.90;;;;;;5040353;28;19909;-67
2022/07/26 13:27:20;;;;;;;;;;;24.80;66.10;;;;;;5038079;28;19974;-67
2022/07/26 13:29:46;;;;;;;;;;;24.80;66.10;;;;;;5024765;28;19917;-67
2022/07/26 13:32:11;;;;;;;;;;;24.80;66.30;;;;;;5021831;28;20282;-67
2022/07/26 13:34:37;;;;;;;;;;;25.00;65.80;;;;;;5014917;28;19914;-67
2022/07/26 13:37:02;;;;;;;;;;;25.00;65.30;;;;;;5024358;28;19921;-67
2022/07/26 13:39:28;;;;;;;;;;;25.10;65.30;;;;;;5028951;28;19921;-67
2022/07/26 13:41:54;;;;;;;;;;;25.10;65.10;;;;;;5021887;28;19917;-67
2022/07/26 13:44:20;;;;;;;;;;;25.20;65.00;;;;;;5021820;28;19925;-67
2022/07/26 13:46:45;;;;;;;;;;;25.30;64.90;;;;;;5024434;28;19917;-67
2022/07/26 13:49:11;;;;;;;;;;;25.30;65.00;;;;;;5023772;28;20000;-67
2022/07/26 13:54:22;;;;;;;;;;;25.50;64.70;;;;;;5020092;28;19920;-67
2022/07/26 13:56:48;;;;;;;;;;;25.50;64.50;;;;;;5040168;28;20007;-67
2022/07/26 13:59:14;;;;;;;;;;;25.60;64.40;;;;;;5035012;28;20003;-68
2022/07/26 14:01:39;;;;;;;;;;;25.60;64.90;;;;;;5022266;28;20490;-67
2022/07/26 14:04:06;;;;;;;;;;;25.60;64.10;;;;;;5040043;28;19920;-67
2022/07/26 14:06:31;;;;;;;;;;;25.50;64.30;;;;;;5024665;28;19940;-67
2022/07/26 14:08:57;;;;;;;;;;;25.50;64.40;;;;;;5004320;28;20635;-67
2022/07/26 14:11:23;;;;;;;;;;;25.60;64.10;;;;;;5021418;28;20008;-67
2022/07/26 14:13:49;;;;;;;;;;;25.60;64.10;;;;;;5021593;28;19921;-67
2022/07/26 14:16:14;;;;;;;;;;;25.70;63.90;;;;;;5031147;28;19962;-67
2022/07/26 14:18:40;;;;;;;;;;;25.90;63.80;;;;;;5021626;28;19913;-67